Airport View

Enter AWOS ICAO identifier for current METAR.

ex. KFNL

KLUM 262330Z AUTO 29009KT 10SM BKN055 M05/M13 A3018 RMK AO2 T10501135

26 Feb 2020 23:28

Frequency: 118.025

Phone: 715-235-5342

Other Area AWOS: KEAU - KY23 - KRPD - KRGK

TAF AMD KEAU 262014Z 2620/2718 34010KT P6SM VCSH SCT025 OVC040 FM262200 31005KT P6SM SCT025 OVC040 TEMPO 2706/2710 BKN025 OVC040